createdAt,value
2023-04-08T00:00:45.574Z,97480.50
2023-04-08T00:03:14.719Z,97480.06
2023-04-08T00:05:42.475Z,97484.69
2023-04-08T00:08:10.163Z,97479.38
2023-04-08T00:10:37.872Z,97482.44
2023-04-08T00:13:05.597Z,97475.22
2023-04-08T00:15:33.359Z,97485.19
2023-04-08T00:18:03.468Z,97474.38
2023-04-08T00:20:32.467Z,97474.78
2023-04-08T00:23:00.152Z,97475.94
2023-04-08T00:25:27.859Z,97476.78
2023-04-08T00:27:55.533Z,97475.06
2023-04-08T00:30:23.392Z,97469.47
2023-04-08T00:32:51.072Z,97478.97
2023-04-08T00:35:18.774Z,97474.28
2023-04-08T00:37:47.715Z,97482.03
2023-04-08T00:40:15.339Z,97483.50
2023-04-08T00:42:43.020Z,97475.22
2023-04-08T00:45:11.311Z,97473.00
2023-04-08T00:47:39.547Z,97465.06
2023-04-08T00:50:09.744Z,97475.66
2023-04-08T00:52:37.583Z,97463.72
2023-04-08T00:55:07.595Z,97465.91
2023-04-08T00:57:35.895Z,97464.13
2023-04-08T01:00:05.030Z,97471.47
2023-04-08T01:02:58.033Z,97468.44
2023-04-08T01:05:35.930Z,97463.84
2023-04-08T01:08:08.408Z,97459.31
2023-04-08T01:10:41.729Z,97463.03
2023-04-08T01:13:14.449Z,97469.00
2023-04-08T01:15:44.390Z,97467.19
2023-04-08T01:18:15.787Z,97460.72
2023-04-08T01:20:45.397Z,97471.88
2023-04-08T01:23:24.848Z,97466.81
2023-04-08T01:25:55.620Z,97464.56
2023-04-08T01:28:28.057Z,97467.19
2023-04-08T01:30:59.209Z,97467.72
2023-04-08T01:33:29.380Z,97476.41
2023-04-08T01:35:59.005Z,97480.81
2023-04-08T01:38:29.181Z,97478.75
2023-04-08T01:41:01.202Z,97480.06
2023-04-08T01:43:30.377Z,97483.50
2023-04-08T01:45:59.862Z,97474.66
2023-04-08T01:48:29.385Z,97471.72
2023-04-08T01:50:59.262Z,97476.28
2023-04-08T01:53:27.034Z,97472.03
2023-04-08T01:56:03.389Z,97463.84
2023-04-08T01:58:37.297Z,97470.66
2023-04-08T02:01:10.188Z,97469.38
2023-04-08T02:03:38.815Z,97476.84
2023-04-08T02:06:06.545Z,97479.13
2023-04-08T02:08:34.860Z,97477.03
2023-04-08T02:11:04.501Z,97474.31
2023-04-08T02:13:33.571Z,97478.06
2023-04-08T02:16:06.814Z,97481.16
2023-04-08T02:18:38.755Z,97482.13
2023-04-08T02:21:12.917Z,97482.63
2023-04-08T02:23:42.780Z,97487.84
2023-04-08T02:26:15.607Z,97486.91
2023-04-08T02:28:43.437Z,97486.06
2023-04-08T02:31:12.980Z,97481.50
2023-04-08T02:33:42.486Z,97483.56
2023-04-08T02:36:12.389Z,97483.00
2023-04-08T02:38:40.101Z,97491.78
2023-04-08T02:41:07.745Z,97486.53
2023-04-08T02:43:36.760Z,97476.19
2023-04-08T02:46:04.658Z,97480.06
2023-04-08T02:48:32.616Z,97477.31
2023-04-08T02:51:00.241Z,97479.38
2023-04-08T02:53:27.950Z,97485.28
2023-04-08T02:55:55.618Z,97480.75
2023-04-08T02:58:23.288Z,97472.09
2023-04-08T03:00:52.333Z,97478.25
2023-04-08T03:03:20.142Z,97478.66
2023-04-08T03:05:47.937Z,97486.31
2023-04-08T03:08:15.485Z,97480.78
2023-04-08T03:10:43.237Z,97476.00
2023-04-08T03:13:10.922Z,97480.41
2023-04-08T03:15:38.532Z,97485.44
2023-04-08T03:18:07.534Z,97492.25
2023-04-08T03:20:35.281Z,97499.97
2023-04-08T03:23:02.930Z,97498.53
2023-04-08T03:25:30.616Z,97502.16
2023-04-08T03:27:58.513Z,97489.00
2023-04-08T03:30:26.532Z,97500.69
2023-04-08T03:32:54.469Z,97498.03
2023-04-08T03:35:23.852Z,97495.94
2023-04-08T03:37:51.499Z,97490.50
2023-04-08T03:40:19.602Z,97499.75
2023-04-08T03:42:47.654Z,97501.53
2023-04-08T03:45:15.304Z,97503.41
2023-04-08T03:47:42.976Z,97508.31
2023-04-08T03:50:11.389Z,97511.16
2023-04-08T03:52:41.262Z,97515.69
2023-04-08T03:55:09.518Z,97508.41
2023-04-08T03:57:37.179Z,97512.03
2023-04-08T04:00:06.156Z,97515.03
2023-04-08T04:02:34.036Z,97508.59
2023-04-08T04:05:02.135Z,97509.69
2023-04-08T04:07:29.939Z,97506.91
2023-04-08T04:09:59.066Z,97508.63
2023-04-08T04:12:26.703Z,97510.25
2023-04-08T04:14:54.361Z,97518.31
2023-04-08T04:17:21.992Z,97522.91
2023-04-08T04:19:49.633Z,97524.72
2023-04-08T04:22:17.259Z,97515.25
2023-04-08T04:24:47.520Z,97512.19
2023-04-08T04:27:16.521Z,97512.13
2023-04-08T04:29:44.254Z,97504.88
2023-04-08T04:32:11.888Z,97514.84
2023-04-08T04:34:39.534Z,97507.56
2023-04-08T04:37:07.198Z,97519.16
2023-04-08T04:39:35.916Z,97522.19
2023-04-08T04:42:04.020Z,97524.94
2023-04-08T04:44:33.050Z,97531.81
2023-04-08T04:47:00.873Z,97527.47
2023-04-08T04:49:28.618Z,97526.72
2023-04-08T04:51:56.338Z,97520.91
2023-04-08T04:54:24.208Z,97532.34
2023-04-08T04:56:51.860Z,97536.88
2023-04-08T04:59:19.439Z,97527.25
2023-04-08T05:01:49.574Z,97536.13
2023-04-08T05:04:17.152Z,97538.13
2023-04-08T05:06:44.787Z,97539.63
2023-04-08T05:09:12.411Z,97547.25
2023-04-08T05:11:40.006Z,97544.94
2023-04-08T05:14:07.649Z,97541.81
2023-04-08T05:16:35.467Z,97557.56
2023-04-08T05:19:04.626Z,97558.06
2023-04-08T05:21:32.393Z,97555.19
2023-04-08T05:24:00.017Z,97560.97
2023-04-08T05:26:27.744Z,97565.63
2023-04-08T05:28:55.396Z,97553.06
2023-04-08T05:31:23.114Z,97567.00
2023-04-08T05:33:50.853Z,97571.06
2023-04-08T05:36:19.741Z,97566.38
2023-04-08T05:38:47.521Z,97571.53
2023-04-08T05:41:15.247Z,97576.09
2023-04-08T05:43:42.924Z,97582.06
2023-04-08T05:46:10.727Z,97572.88
2023-04-08T05:48:38.385Z,97585.28
2023-04-08T05:51:06.109Z,97582.53
2023-04-08T05:53:35.083Z,97585.41
2023-04-08T05:56:02.983Z,97592.16
2023-04-08T05:58:30.609Z,97580.19
2023-04-08T06:00:58.267Z,97582.97
2023-04-08T06:03:26.084Z,97581.81
2023-04-08T06:05:53.878Z,97578.34
2023-04-08T06:08:21.556Z,97587.84
2023-04-08T06:10:51.978Z,97590.94
2023-04-08T06:13:19.683Z,97601.09
2023-04-08T06:15:47.397Z,97593.25
2023-04-08T06:18:15.040Z,97596.09
2023-04-08T06:20:42.716Z,97592.38
2023-04-08T06:23:10.298Z,97589.53
2023-04-08T06:25:38.128Z,97585.69
2023-04-08T06:28:07.092Z,97591.19
2023-04-08T06:30:34.740Z,97585.69
2023-04-08T06:33:02.335Z,97583.22
2023-04-08T06:35:29.979Z,97586.53
2023-04-08T06:37:58.097Z,97580.59
2023-04-08T06:40:25.997Z,97575.94
2023-04-08T06:42:53.753Z,97571.97
2023-04-08T06:45:23.002Z,97578.13
2023-04-08T06:47:50.768Z,97580.09
2023-04-08T06:50:18.373Z,97574.56
2023-04-08T06:52:45.992Z,97577.56
2023-04-08T06:55:13.733Z,97577.19
2023-04-08T06:57:41.372Z,97581.59
2023-04-08T07:00:12.435Z,97575.97
2023-04-08T07:02:41.562Z,97573.97
2023-04-08T07:05:09.714Z,97582.69
2023-04-08T07:07:37.450Z,97578.31
2023-04-08T07:10:05.824Z,97588.13
2023-04-08T07:12:34.416Z,97583.75
2023-04-08T07:15:02.707Z,97580.50
2023-04-08T07:17:30.422Z,97581.72
2023-04-08T07:19:59.360Z,97587.47
2023-04-08T07:22:27.001Z,97580.25
2023-04-08T07:24:54.685Z,97584.94
2023-04-08T07:27:22.320Z,97591.81
2023-04-08T07:29:52.855Z,97588.63
2023-04-08T07:32:20.498Z,97590.53
2023-04-08T07:34:48.417Z,97602.94
2023-04-08T07:37:17.647Z,97588.25
2023-04-08T07:39:45.597Z,97581.88
2023-04-08T07:42:15.540Z,97587.25
2023-04-08T07:44:43.177Z,97586.47
2023-04-08T07:47:10.854Z,97599.56
2023-04-08T07:49:38.787Z,97594.94
2023-04-08T07:52:06.499Z,97590.84
2023-04-08T07:54:35.455Z,97589.88
2023-04-08T07:57:03.272Z,97591.09
2023-04-08T07:59:32.127Z,97599.03
2023-04-08T08:01:59.859Z,97609.13
2023-04-08T08:04:27.691Z,97609.56
2023-04-08T08:06:55.458Z,97610.22
2023-04-08T08:09:23.115Z,97622.41
2023-04-08T08:11:52.467Z,97604.91
2023-04-08T08:14:20.089Z,97612.31
2023-04-08T08:16:47.997Z,97613.56
2023-04-08T08:19:15.610Z,97624.50
2023-04-08T08:21:43.501Z,97622.97
2023-04-08T08:24:11.213Z,97620.09
2023-04-08T08:26:38.919Z,97619.75
2023-04-08T08:29:08.074Z,97616.63
2023-04-08T08:31:35.892Z,97621.19
2023-04-08T08:34:03.665Z,97616.22
2023-04-08T08:36:32.759Z,97621.91
2023-04-08T08:39:01.299Z,97630.72
2023-04-08T08:41:33.704Z,97623.81
2023-04-08T08:44:02.726Z,97626.13
2023-04-08T08:46:31.980Z,97621.44
2023-04-08T08:49:00.264Z,97615.25
2023-04-08T08:51:29.872Z,97620.78
2023-04-08T08:54:02.511Z,97622.50
2023-04-08T08:56:30.428Z,97622.19
2023-04-08T08:58:57.980Z,97621.78
2023-04-08T09:01:33.230Z,97621.00
2023-04-08T09:04:15.406Z,97622.94
2023-04-08T09:06:44.123Z,97626.75
2023-04-08T09:09:11.824Z,97629.44
2023-04-08T09:11:42.138Z,97633.75
2023-04-08T09:14:20.918Z,97626.41
2023-04-08T09:16:50.871Z,97628.22
2023-04-08T09:19:19.255Z,97626.97
2023-04-08T09:22:04.892Z,97631.78
2023-04-08T09:24:32.855Z,97628.72
2023-04-08T09:27:02.034Z,97623.34
2023-04-08T09:29:33.131Z,97629.84
2023-04-08T09:32:03.877Z,97629.53
2023-04-08T09:34:31.544Z,97621.16
2023-04-08T09:36:59.747Z,97624.50
2023-04-08T09:39:27.337Z,97630.03
2023-04-08T09:42:00.552Z,97626.84
2023-04-08T09:44:29.464Z,97616.31
2023-04-08T09:47:09.903Z,97605.28
2023-04-08T09:49:43.681Z,97612.09
2023-04-08T09:52:15.088Z,97618.72
2023-04-08T09:54:52.370Z,97615.94
2023-04-08T09:57:25.855Z,97613.72
2023-04-08T10:00:10.810Z,97607.50
2023-04-08T10:02:47.693Z,97607.94
2023-04-08T10:05:18.111Z,97614.00
2023-04-08T10:07:49.328Z,97614.03
2023-04-08T10:10:17.502Z,97608.34
2023-04-08T10:12:45.827Z,97606.41
2023-04-08T10:15:24.130Z,97602.91
2023-04-08T10:17:53.663Z,97602.84
2023-04-08T10:20:41.586Z,97600.91
2023-04-08T10:23:11.226Z,97602.50
2023-04-08T10:25:40.000Z,97593.38
2023-04-08T10:28:26.476Z,97593.59
2023-04-08T10:30:56.065Z,97588.78
2023-04-08T10:33:32.298Z,97585.75
2023-04-08T10:36:08.480Z,97593.34
2023-04-08T10:38:36.180Z,97586.84
2023-04-08T10:41:04.265Z,97581.94
2023-04-08T10:43:33.731Z,97585.97
2023-04-08T10:46:01.482Z,97586.13
2023-04-08T10:48:30.899Z,97592.63
2023-04-08T10:51:00.481Z,97584.97
2023-04-08T10:53:29.590Z,97574.06
2023-04-08T10:56:07.892Z,97572.28
2023-04-08T10:58:36.162Z,97583.06
2023-04-08T11:01:05.188Z,97582.59
2023-04-08T11:03:35.422Z,97579.34
2023-04-08T11:06:03.907Z,97575.38
2023-04-08T11:08:33.452Z,97570.31
2023-04-08T11:11:01.992Z,97573.44
2023-04-08T11:13:30.465Z,97571.09
2023-04-08T11:15:59.937Z,97573.78
2023-04-08T11:18:28.619Z,97579.56
2023-04-08T11:21:00.227Z,97566.56
2023-04-08T11:23:29.246Z,97567.63
2023-04-08T11:25:58.003Z,97563.41
2023-04-08T11:28:26.195Z,97566.94
2023-04-08T11:30:55.124Z,97560.38
2023-04-08T11:33:25.075Z,97562.97
2023-04-08T11:35:53.262Z,97548.75
2023-04-08T11:38:24.642Z,97555.19
2023-04-08T11:40:53.342Z,97557.16
2023-04-08T11:43:21.256Z,97541.66
2023-04-08T11:45:49.206Z,97544.94
2023-04-08T11:48:17.384Z,97551.97
2023-04-08T11:50:45.366Z,97543.66
2023-04-08T11:53:18.765Z,97554.91
2023-04-08T11:55:48.661Z,97557.63
2023-04-08T11:58:16.468Z,97550.13
2023-04-08T12:00:44.867Z,97538.16
2023-04-08T12:03:12.625Z,97537.50
2023-04-08T12:05:40.706Z,97539.03
2023-04-08T12:08:08.303Z,97548.56
2023-04-08T12:10:36.260Z,97537.41
2023-04-08T12:13:05.326Z,97542.69
2023-04-08T12:15:32.952Z,97548.06
2023-04-08T12:18:00.526Z,97554.25
2023-04-08T12:20:28.376Z,97539.03
2023-04-08T12:22:55.984Z,97536.63
2023-04-08T12:25:25.323Z,97531.44
2023-04-08T12:27:54.543Z,97535.72
2023-04-08T12:30:23.478Z,97538.06
2023-04-08T12:32:51.564Z,97524.25
2023-04-08T12:35:20.662Z,97520.31
2023-04-08T12:37:48.295Z,97530.50
2023-04-08T12:40:16.349Z,97527.00
2023-04-08T12:42:43.917Z,97524.72
2023-04-08T12:45:11.565Z,97529.66
2023-04-08T12:47:40.584Z,97524.09
2023-04-08T12:50:09.042Z,97524.31
2023-04-08T12:52:36.634Z,97524.47
2023-04-08T12:55:04.827Z,97518.66
2023-04-08T12:57:32.507Z,97520.88
2023-04-08T13:00:00.136Z,97521.13
2023-04-08T13:02:27.920Z,97515.16
2023-04-08T13:04:57.279Z,97524.34
2023-04-08T13:07:25.042Z,97516.53
2023-04-08T13:09:52.599Z,97504.66
2023-04-08T13:12:21.185Z,97517.75
2023-04-08T13:14:48.779Z,97512.75
2023-04-08T13:17:16.461Z,97520.56
2023-04-08T13:19:44.233Z,97517.66
2023-04-08T13:22:13.804Z,97514.16
2023-04-08T13:24:41.898Z,97519.53
2023-04-08T13:27:10.192Z,97525.28
2023-04-08T13:29:37.812Z,97522.38
2023-04-08T13:32:05.603Z,97516.03
2023-04-08T13:34:33.174Z,97511.31
2023-04-08T13:37:00.746Z,97508.91
2023-04-08T13:39:29.707Z,97508.44
2023-04-08T13:41:57.255Z,97513.03
2023-04-08T13:44:25.151Z,97505.38
2023-04-08T13:46:52.735Z,97503.69
2023-04-08T13:49:20.380Z,97504.09
2023-04-08T13:51:47.888Z,97509.66
2023-04-08T13:54:15.434Z,97509.41
2023-04-08T13:56:44.282Z,97514.88
2023-04-08T13:59:11.843Z,97504.03
2023-04-08T14:01:39.611Z,97499.97
2023-04-08T14:04:07.209Z,97505.00
2023-04-08T14:06:34.784Z,97513.13
2023-04-08T14:09:02.476Z,97500.59
2023-04-08T14:11:30.079Z,97504.38
2023-04-08T14:13:58.953Z,97497.41
2023-04-08T14:16:27.557Z,97501.34
2023-04-08T14:18:55.183Z,97509.50
2023-04-08T14:21:22.833Z,97510.00
2023-04-08T14:23:50.589Z,97509.13
2023-04-08T14:26:18.484Z,97513.59
2023-04-08T14:28:46.098Z,97515.50
2023-04-08T14:31:15.640Z,97516.31
2023-04-08T14:33:43.399Z,97523.13
2023-04-08T14:36:12.016Z,97503.81
2023-04-08T14:38:39.977Z,97509.16
2023-04-08T14:41:08.735Z,97502.22
2023-04-08T14:43:36.364Z,97514.78
2023-04-08T14:46:04.373Z,97513.88
2023-04-08T14:48:36.690Z,97516.34
2023-04-08T14:51:04.543Z,97516.78
2023-04-08T14:53:32.596Z,97513.63
2023-04-08T14:56:01.758Z,97509.78
2023-04-08T14:58:29.377Z,97505.66
2023-04-08T15:00:57.041Z,97506.59
2023-04-08T15:03:24.723Z,97513.94
2023-04-08T15:05:53.753Z,97526.69
2023-04-08T15:08:21.517Z,97506.09
2023-04-08T15:10:49.172Z,97501.97
2023-04-08T15:13:16.856Z,97505.91
2023-04-08T15:15:45.073Z,97507.53
2023-04-08T15:18:13.725Z,97505.25
2023-04-08T15:20:41.431Z,97513.84
2023-04-08T15:23:10.451Z,97520.03
2023-04-08T15:25:38.249Z,97519.81
2023-04-08T15:28:05.848Z,97521.75
2023-04-08T15:30:33.469Z,97513.41
2023-04-08T15:33:02.960Z,97523.16
2023-04-08T15:35:31.170Z,97518.59
2023-04-08T15:38:00.293Z,97526.53
2023-04-08T15:40:29.618Z,97532.44
2023-04-08T15:42:57.254Z,97524.50
2023-04-08T15:45:24.893Z,97530.00
2023-04-08T15:47:52.654Z,97522.91
2023-04-08T15:50:20.768Z,97525.47
2023-04-08T15:52:49.760Z,97534.13
2023-04-08T15:55:17.734Z,97528.50
2023-04-08T15:57:46.816Z,97535.47
2023-04-08T16:00:16.511Z,97529.31
2023-04-08T16:02:44.719Z,97528.97
2023-04-08T16:05:12.581Z,97530.09
2023-04-08T16:07:40.266Z,97530.72
2023-04-08T16:10:08.627Z,97522.38
2023-04-08T16:12:36.281Z,97533.13
2023-04-08T16:15:06.433Z,97528.13
2023-04-08T16:17:34.397Z,97524.22
2023-04-08T16:20:02.034Z,97533.19
2023-04-08T16:22:29.694Z,97534.75
2023-04-08T16:24:57.501Z,97532.31
2023-04-08T16:27:25.040Z,97536.50
2023-04-08T16:29:52.981Z,97531.97
2023-04-08T16:32:22.033Z,97530.47
2023-04-08T16:34:49.818Z,97534.31
2023-04-08T16:37:18.599Z,97536.19
2023-04-08T16:39:46.494Z,97533.53
2023-04-08T16:42:14.533Z,97533.38
2023-04-08T16:44:43.931Z,97536.94
2023-04-08T16:47:11.486Z,97533.19
2023-04-08T16:49:43.871Z,97529.69
2023-04-08T16:52:11.463Z,97533.38
2023-04-08T16:54:39.134Z,97539.75
2023-04-08T16:57:09.694Z,97533.81
2023-04-08T16:59:37.402Z,97525.47
2023-04-08T17:02:05.089Z,97531.03
2023-04-08T17:04:32.644Z,97535.97
2023-04-08T17:07:01.874Z,97541.97
2023-04-08T17:09:29.501Z,97537.78
2023-04-08T17:11:57.290Z,97540.81
2023-04-08T17:14:25.106Z,97542.94
2023-04-08T17:16:53.103Z,97543.97
2023-04-08T17:19:21.119Z,97545.81
2023-04-08T17:21:51.360Z,97553.44
2023-04-08T17:24:20.960Z,97553.19
2023-04-08T17:26:49.174Z,97550.16
2023-04-08T17:29:16.802Z,97546.44
2023-04-08T17:31:44.650Z,97548.75
2023-04-08T17:34:13.676Z,97551.72
2023-04-08T17:36:41.587Z,97552.97
2023-04-08T17:39:09.848Z,97551.53
2023-04-08T17:41:40.908Z,97555.91
2023-04-08T17:44:09.412Z,97550.03
2023-04-08T17:46:39.398Z,97560.34
2023-04-08T17:49:08.077Z,97559.00
2023-04-08T17:51:35.634Z,97560.13
2023-04-08T17:54:03.428Z,97569.28
2023-04-08T17:56:31.382Z,97556.66
2023-04-08T17:59:02.637Z,97563.22
2023-04-08T18:01:30.417Z,97567.88
2023-04-08T18:03:58.240Z,97562.84
2023-04-08T18:06:26.021Z,97562.78
2023-04-08T18:08:54.059Z,97567.34
2023-04-08T18:11:21.717Z,97567.75
2023-04-08T18:13:49.473Z,97574.03
2023-04-08T18:16:21.282Z,97576.38
2023-04-08T18:18:49.316Z,97577.00
2023-04-08T18:21:17.009Z,97577.53
2023-04-08T18:23:44.556Z,97569.13
2023-04-08T18:26:12.204Z,97576.34
2023-04-08T18:28:40.099Z,97574.22
2023-04-08T18:31:09.990Z,97569.22
2023-04-08T18:33:39.676Z,97574.06
2023-04-08T18:36:08.959Z,97581.47
2023-04-08T18:38:36.620Z,97569.03
2023-04-08T18:41:04.727Z,97582.03
2023-04-08T18:43:32.808Z,97584.84
2023-04-08T18:46:00.608Z,97587.75
2023-04-08T18:48:29.428Z,97581.66
2023-04-08T18:50:58.600Z,97588.91
2023-04-08T18:53:26.448Z,97599.16
2023-04-08T18:55:54.052Z,97595.19
2023-04-08T18:58:21.791Z,97606.78
2023-04-08T19:00:50.843Z,97598.88
2023-04-08T19:03:18.675Z,97604.97
2023-04-08T19:05:46.383Z,97605.84
2023-04-08T19:08:15.746Z,97613.94
2023-04-08T19:10:43.813Z,97614.47
2023-04-08T19:13:13.954Z,97611.44
2023-04-08T19:15:43.353Z,97612.72
2023-04-08T19:18:11.060Z,97610.59
2023-04-08T19:20:38.663Z,97612.25
2023-04-08T19:23:06.310Z,97617.16
2023-04-08T19:25:35.920Z,97622.22
2023-04-08T19:28:03.605Z,97610.69
2023-04-08T19:30:35.997Z,97615.53
2023-04-08T19:33:04.453Z,97616.84
2023-04-08T19:35:32.169Z,97618.31
2023-04-08T19:38:01.370Z,97609.53
2023-04-08T19:40:29.118Z,97608.25
2023-04-08T19:42:58.118Z,97620.00
2023-04-08T19:45:26.016Z,97621.06
2023-04-08T19:47:53.712Z,97618.13
2023-04-08T19:50:22.436Z,97624.59
2023-04-08T19:52:50.177Z,97619.22
2023-04-08T19:55:18.029Z,97621.84
2023-04-08T19:57:45.850Z,97623.06
2023-04-08T20:00:15.110Z,97621.53
2023-04-08T20:02:43.369Z,97622.00
2023-04-08T20:05:12.506Z,97611.81
2023-04-08T20:07:41.189Z,97616.91
2023-04-08T20:10:10.657Z,97609.00
2023-04-08T20:12:38.904Z,97626.13
2023-04-08T20:15:09.375Z,97616.28
2023-04-08T20:18:03.492Z,97617.31
2023-04-08T20:20:31.333Z,97618.50
2023-04-08T20:23:01.597Z,97612.50
2023-04-08T20:25:29.300Z,97611.91
2023-04-08T20:27:56.996Z,97613.16
2023-04-08T20:30:24.854Z,97613.88
2023-04-08T20:32:53.832Z,97612.16
2023-04-08T20:35:21.541Z,97611.53
2023-04-08T20:37:49.368Z,97614.31
2023-04-08T20:40:18.417Z,97613.09
2023-04-08T20:42:46.450Z,97619.31
2023-04-08T20:45:14.055Z,97616.00
2023-04-08T20:47:44.127Z,97617.31
2023-04-08T20:50:13.396Z,97616.81
2023-04-08T20:52:41.341Z,97614.78
2023-04-08T20:55:10.222Z,97623.84
2023-04-08T20:57:37.793Z,97628.69
2023-04-08T21:00:06.634Z,97628.41
2023-04-08T21:02:34.436Z,97646.31
2023-04-08T21:05:02.149Z,97631.34
2023-04-08T21:07:31.323Z,97628.25
2023-04-08T21:10:00.193Z,97627.97
2023-04-08T21:12:27.821Z,97622.38
2023-04-08T21:14:55.653Z,97632.69
2023-04-08T21:17:24.668Z,97630.38
2023-04-08T21:19:52.300Z,97629.66
2023-04-08T21:22:19.871Z,97620.22
2023-04-08T21:24:48.768Z,97628.91
2023-04-08T21:27:16.453Z,97614.75
2023-04-08T21:29:45.445Z,97614.31
2023-04-08T21:32:13.467Z,97610.88
2023-04-08T21:34:41.118Z,97621.59
2023-04-08T21:37:08.676Z,97601.66
2023-04-08T21:39:36.355Z,97614.19
2023-04-08T21:42:05.457Z,97609.69
2023-04-08T21:44:33.001Z,97611.72
2023-04-08T21:47:02.765Z,97619.97
2023-04-08T21:49:30.349Z,97623.28
2023-04-08T21:51:58.357Z,97624.28
2023-04-08T21:54:27.672Z,97618.94
2023-04-08T21:56:55.637Z,97626.56
2023-04-08T21:59:24.830Z,97623.63
2023-04-08T22:01:52.439Z,97619.78
2023-04-08T22:04:20.108Z,97627.34
2023-04-08T22:06:48.615Z,97609.34
2023-04-08T22:09:16.526Z,97621.88
2023-04-08T22:11:44.241Z,97621.69
2023-04-08T22:14:11.882Z,97618.94
2023-04-08T22:16:40.824Z,97614.91
2023-04-08T22:19:10.206Z,97614.94
2023-04-08T22:21:37.898Z,97621.31
2023-04-08T22:24:05.719Z,97628.03
2023-04-08T22:26:33.468Z,97628.91
2023-04-08T22:29:02.295Z,97628.69
2023-04-08T22:31:30.334Z,97635.94
2023-04-08T22:33:59.317Z,97643.31
2023-04-08T22:36:26.954Z,97631.00
2023-04-08T22:38:54.656Z,97641.31
2023-04-08T22:41:23.861Z,97639.19
2023-04-08T22:43:51.512Z,97632.69
2023-04-08T22:46:19.244Z,97636.22
2023-04-08T22:48:47.787Z,97639.28
2023-04-08T22:51:16.813Z,97632.81
2023-04-08T22:53:44.500Z,97630.66
2023-04-08T22:56:12.112Z,97630.50
2023-04-08T22:58:39.733Z,97626.97
2023-04-08T23:01:11.863Z,97625.88
2023-04-08T23:03:39.640Z,97627.91
2023-04-08T23:06:07.543Z,97630.72
2023-04-08T23:08:36.507Z,97635.75
2023-04-08T23:11:04.357Z,97635.16
2023-04-08T23:13:32.009Z,97638.03
2023-04-08T23:15:59.797Z,97638.72
2023-04-08T23:18:27.729Z,97639.81
2023-04-08T23:20:56.724Z,97658.16
2023-04-08T23:23:25.328Z,97667.03
2023-04-08T23:25:55.762Z,97670.03
2023-04-08T23:28:24.073Z,97669.91
2023-04-08T23:30:51.724Z,97662.97
2023-04-08T23:33:19.300Z,97670.59
2023-04-08T23:35:47.148Z,97662.78
2023-04-08T23:38:14.821Z,97671.44
2023-04-08T23:40:42.588Z,97668.22
2023-04-08T23:43:12.773Z,97668.44
2023-04-08T23:45:40.545Z,97665.75
2023-04-08T23:48:10.059Z,97671.69
2023-04-08T23:50:40.253Z,97660.63
2023-04-08T23:53:07.889Z,97669.13
2023-04-08T23:55:35.514Z,97665.81
2023-04-08T23:58:03.143Z,97665.59
